Time;durP1;ratioP1;P1;durP2;ratioP2;P2;SDS_P1;SDS_P2;PMS_P1;PMS_P2;Temp;Humidity;BMP_temperature;BMP_pressure;BME280_temperature;BME280_humidity;BME280_pressure;Samples;Min_cycle;Max_cycle;Signal;HPM_P1;HPM_P2
2021/04/09 00:01:16;;;;;;;0.50;0.50;;;16.10;55.60;;;;;;4212126;28;20540;-43
2021/04/09 00:03:36;;;;;;;0.00;0.00;;;16.10;55.60;;;;;;4212141;28;20176;-44
2021/04/09 00:06:00;;;;;;;0.05;0.05;;;16.00;55.60;;;;;;4212055;28;20063;-45
2021/04/09 00:08:21;;;;;;;0.80;0.80;;;16.10;55.60;;;;;;4214041;28;20059;-43
2021/04/09 00:10:41;;;;;;;0.47;0.47;;;16.10;56.20;;;;;;4215273;28;20067;-45
2021/04/09 00:13:03;;;;;;;1.00;0.90;;;16.10;55.60;;;;;;4215337;28;20392;-42
2021/04/09 00:15:28;;;;;;;0.73;0.73;;;16.00;55.70;;;;;;4215000;28;20059;-43
2021/04/09 00:17:49;;;;;;;0.10;0.10;;;16.00;56.00;;;;;;4215063;28;20628;-44
2021/04/09 00:20:13;;;;;;;0.00;0.00;;;16.00;56.00;;;;;;4214699;28;20147;-48
2021/04/09 00:22:34;;;;;;;4.28;0.47;;;16.00;55.80;;;;;;4215065;28;20051;-42
2021/04/09 00:24:54;;;;;;;1.55;1.45;;;16.20;55.30;;;;;;4214748;28;20052;-41
2021/04/09 00:27:15;;;;;;;0.00;0.00;;;16.50;54.80;;;;;;4214911;28;20490;-41
2021/04/09 00:29:36;;;;;;;0.00;0.00;;;16.60;54.40;;;;;;4203725;28;20409;-41
2021/04/09 00:31:58;;;;;;;0.00;0.00;;;16.70;53.70;;;;;;4214952;28;20076;-42
2021/04/09 00:34:19;;;;;;;0.25;0.25;;;16.60;53.30;;;;;;4214596;28;20130;-41
2021/04/09 00:36:43;;;;;;;0.20;0.20;;;16.50;53.60;;;;;;4214853;28;20062;-41
2021/04/09 00:39:06;;;;;;;0.35;0.35;;;16.40;52.70;;;;;;4214330;28;20151;-42
2021/04/09 00:41:27;;;;;;;1.73;0.90;;;16.40;52.10;;;;;;4214733;28;20518;-41
2021/04/09 00:43:49;;;;;;;0.10;0.10;;;16.40;51.70;;;;;;4214765;28;20059;-41
2021/04/09 00:46:10;;;;;;;0.25;0.25;;;16.30;51.10;;;;;;4197835;28;20068;-41
2021/04/09 00:48:33;;;;;;;0.25;0.25;;;16.20;51.00;;;;;;4210896;28;20052;-41
2021/04/09 00:50:53;;;;;;;0.75;0.75;;;16.10;51.40;;;;;;4214319;28;20490;-41
2021/04/09 00:53:18;;;;;;;1.13;1.13;;;16.00;50.50;;;;;;4197914;28;20122;-41
2021/04/09 00:55:39;;;;;;;0.10;0.10;;;16.00;50.30;;;;;;4197838;28;20076;-41
2021/04/09 00:58:04;;;;;;;0.25;0.25;;;15.90;50.30;;;;;;4197732;28;20048;-41
2021/04/09 01:00:25;;;;;;;1.33;1.33;;;15.80;50.20;;;;;;4210827;28;20052;-42
2021/04/09 01:02:46;;;;;;;0.22;0.22;;;15.70;50.10;;;;;;4214404;28;20055;-41
2021/04/09 01:05:12;;;;;;;3.20;1.02;;;15.80;50.50;;;;;;4214185;28;20063;-41
2021/04/09 01:07:33;;;;;;;7.55;0.50;;;15.80;50.60;;;;;;4214045;28;20048;-41
2021/04/09 01:09:57;;;;;;;0.30;0.30;;;15.80;51.00;;;;;;4213911;28;20056;-42
2021/04/09 01:12:17;;;;;;;1.77;1.67;;;15.90;51.40;;;;;;4214290;28;20097;-41
2021/04/09 01:14:41;;;;;;;0.10;0.10;;;16.00;51.40;;;;;;4213819;28;20121;-41
2021/04/09 01:17:09;;;;;;;0.00;0.00;;;16.00;51.50;;;;;;4214389;28;20048;-41
2021/04/09 01:20:06;;;;;;;0.57;0.57;;;16.00;51.70;;;;;;4213660;28;20390;-42
2021/04/09 01:22:38;;;;;;;0.90;0.90;;;16.00;52.10;;;;;;4214188;28;20056;-41
2021/04/09 01:25:23;;;;;;;0.08;0.08;;;15.90;52.40;;;;;;4213969;28;20052;-41
2021/04/09 01:27:57;;;;;;;1.10;1.10;;;15.80;52.50;;;;;;4214140;28;20048;-42
2021/04/09 01:30:53;;;;;;;0.00;0.00;;;15.80;52.70;;;;;;4213773;28;20055;-42
2021/04/09 01:33:15;;;;;;;0.00;0.00;;;15.80;53.00;;;;;;4213743;28;20093;-43
2021/04/09 01:35:41;;;;;;;0.40;0.40;;;15.80;53.20;;;;;;4213755;28;20105;-41
2021/04/09 01:38:03;;;;;;;0.32;0.32;;;15.80;53.30;;;;;;4213676;28;20059;-41
2021/04/09 01:40:31;;;;;;;0.30;0.30;;;15.70;53.40;;;;;;4213698;28;20056;-41
2021/04/09 01:42:55;;;;;;;0.05;0.05;;;15.70;53.70;;;;;;4213706;28;20054;-43
2021/04/09 01:45:19;;;;;;;0.00;0.00;;;15.70;53.70;;;;;;4213190;28;20086;-41
2021/04/09 01:47:43;;;;;;;0.50;0.50;;;15.80;53.50;;;;;;4213733;28;20055;-42
2021/04/09 01:50:11;;;;;;;0.00;0.00;;;15.90;53.20;;;;;;4213669;28;20056;-45
2021/04/09 01:52:34;;;;;;;0.17;0.17;;;15.90;53.10;;;;;;4213341;28;20051;-43
2021/04/09 01:54:56;;;;;;;0.25;0.25;;;15.90;53.20;;;;;;4213201;28;20123;-40
2021/04/09 01:57:20;;;;;;;0.08;0.08;;;15.80;53.30;;;;;;4205057;28;20495;-41
2021/04/09 01:59:42;;;;;;;1.17;1.08;;;15.80;53.50;;;;;;4213040;28;20083;-41
2021/04/09 02:02:04;;;;;;;0.10;0.10;;;15.80;53.70;;;;;;4213206;28;20105;-41
2021/04/09 02:04:27;;;;;;;0.65;0.65;;;15.90;53.40;;;;;;4213153;28;20490;-41
2021/04/09 02:06:50;;;;;;;0.00;0.00;;;16.10;52.80;;;;;;4212288;28;20613;-41
2021/04/09 02:09:13;;;;;;;0.57;0.57;;;16.30;52.50;;;;;;4213025;28;20056;-41
2021/04/09 02:11:36;;;;;;;0.03;0.03;;;16.40;52.20;;;;;;4213249;28;20558;-44
2021/04/09 02:13:58;;;;;;;0.35;0.35;;;16.40;52.00;;;;;;4212948;28;20075;-43
2021/04/09 02:16:20;;;;;;;0.03;0.03;;;16.50;51.80;;;;;;4212907;28;20055;-41
2021/04/09 02:18:41;;;;;;;4.28;0.57;;;16.50;51.80;;;;;;4213162;28;20125;-41
2021/04/09 02:21:05;;;;;;;0.00;0.00;;;16.40;51.90;;;;;;4212767;28;20063;-41
2021/04/09 02:23:27;;;;;;;0.40;0.30;;;16.30;52.20;;;;;;4213089;28;20059;-41
2021/04/09 02:25:48;;;;;;;0.52;0.47;;;16.30;52.30;;;;;;4212934;28;20052;-41
2021/04/09 02:28:10;;;;;;;1.05;1.02;;;16.20;52.60;;;;;;4212909;28;20117;-41
2021/04/09 02:30:31;;;;;;;0.30;0.30;;;16.10;52.80;;;;;;4212278;28;20056;-41
2021/04/09 02:32:53;;;;;;;0.17;0.17;;;16.10;53.20;;;;;;4212702;28;20131;-40
2021/04/09 02:35:16;;;;;;;0.40;0.40;;;16.10;53.90;;;;;;4211677;28;20105;-41
2021/04/09 02:37:39;;;;;;;0.00;0.00;;;16.20;53.00;;;;;;4212909;28;20518;-41
2021/04/09 02:40:06;;;;;;;0.57;0.57;;;16.40;52.60;;;;;;4212678;28;20048;-40
2021/04/09 02:42:27;;;;;;;0.65;0.65;;;16.40;52.40;;;;;;4212686;28;20048;-43
2021/04/09 02:44:48;;;;;;;0.28;0.28;;;16.40;52.40;;;;;;4212267;28;20048;-41
2021/04/09 02:47:13;;;;;;;0.47;0.47;;;16.40;52.30;;;;;;4212418;28;20056;-41
2021/04/09 02:49:39;;;;;;;0.08;0.08;;;16.30;52.50;;;;;;4212639;28;20573;-41
2021/04/09 02:52:01;;;;;;;0.32;0.32;;;16.30;52.60;;;;;;4212754;28;20047;-41
2021/04/09 02:54:23;;;;;;;0.15;0.15;;;16.30;52.60;;;;;;4212582;28;20052;-41
2021/04/09 02:56:45;;;;;;;0.90;0.47;;;16.30;52.60;;;;;;4212447;28;20414;-41
2021/04/09 02:59:09;;;;;;;1.30;1.23;;;16.20;52.90;;;;;;4212396;28;20063;-42
2021/04/09 03:01:32;;;;;;;0.00;0.00;;;16.20;53.10;;;;;;4210998;28;20044;-42
2021/04/09 03:03:54;;;;;;;0.47;0.47;;;16.10;53.00;;;;;;4212332;28;20052;-41
2021/04/09 03:06:15;;;;;;;0.75;0.75;;;16.20;53.00;;;;;;4212443;28;20158;-41
2021/04/09 03:08:36;;;;;;;0.25;0.25;;;16.20;53.00;;;;;;4212531;28;20501;-41
2021/04/09 03:10:57;;;;;;;0.20;0.20;;;16.10;53.20;;;;;;4195767;28;20062;-42
2021/04/09 03:13:19;;;;;;;0.10;0.10;;;16.00;53.40;;;;;;4195723;28;20048;-40
2021/04/09 03:15:44;;;;;;;0.30;0.30;;;16.00;53.70;;;;;;4209651;28;20059;-42
2021/04/09 03:18:08;;;;;;;0.70;0.30;;;15.90;53.90;;;;;;4211937;28;20457;-41
2021/04/09 03:20:29;;;;;;;0.00;0.00;;;15.80;54.10;;;;;;4211034;28;20052;-41
2021/04/09 03:22:52;;;;;;;0.10;0.10;;;15.80;54.10;;;;;;4212310;28;20055;-41
2021/04/09 03:25:13;;;;;;;0.60;0.30;;;15.90;53.90;;;;;;4212090;28;20422;-41
2021/04/09 03:27:35;;;;;;;0.00;0.00;;;16.10;53.60;;;;;;4212166;28;20062;-47
2021/04/09 03:29:56;;;;;;;1.52;1.42;;;16.20;53.10;;;;;;4212283;28;20060;-45
2021/04/09 03:32:17;;;;;;;0.17;0.17;;;16.40;52.80;;;;;;4212181;28;20430;-41
2021/04/09 03:34:38;;;;;;;;;;;16.50;52.40;;;;;;4203752;28;20058;-41
2021/04/09 03:37:00;;;;;;;0.00;0.00;;;16.60;52.20;;;;;;4212266;28;19920;-41
2021/04/09 03:39:21;;;;;;;0.28;0.28;;;16.70;51.90;;;;;;4212043;28;20521;-40
2021/04/09 03:41:42;;;;;;;0.22;0.22;;;16.80;51.70;;;;;;4213964;28;20131;-41
2021/04/09 03:44:03;;;;;;;0.00;0.00;;;16.90;51.60;;;;;;4215681;28;20067;-41
2021/04/09 03:46:25;;;;;;;0.38;0.38;;;16.90;51.50;;;;;;4215648;28;20075;-41
2021/04/09 03:48:47;;;;;;;1.55;1.45;;;16.90;51.60;;;;;;4215194;28;20047;-42
2021/04/09 03:51:11;;;;;;;0.08;0.08;;;16.90;51.70;;;;;;4215460;28;20083;-44
2021/04/09 03:53:32;;;;;;;0.13;0.13;;;16.90;51.70;;;;;;4215054;28;20093;-41
2021/04/09 03:55:53;;;;;;;0.00;0.00;;;17.00;51.50;;;;;;4215463;28;20072;-44
2021/04/09 03:58:13;;;;;;;0.00;0.00;;;17.00;51.30;;;;;;4215141;28;20052;-41
2021/04/09 04:00:37;;;;;;;0.65;0.65;;;17.00;51.20;;;;;;4215312;28;20579;-41
2021/04/09 04:02:59;;;;;;;1.20;0.73;;;17.00;52.00;;;;;;4214980;28;20070;-42
2021/04/09 04:05:20;;;;;;;0.00;0.00;;;16.90;52.20;;;;;;4215254;28;20452;-41
2021/04/09 04:07:41;;;;;;;0.00;0.00;;;16.80;51.50;;;;;;4214979;28;20133;-41
2021/04/09 04:10:03;;;;;;;0.25;0.25;;;16.70;51.90;;;;;;4215433;28;20079;-40
2021/04/09 04:12:24;;;;;;;0.10;0.10;;;16.60;52.40;;;;;;4215088;28;20056;-41
2021/04/09 04:14:46;;;;;;;0.00;0.00;;;16.60;52.30;;;;;;4214974;28;20054;-41
2021/04/09 04:17:07;;;;;;;0.45;0.43;;;16.70;52.20;;;;;;4214816;28;20048;-42
2021/04/09 04:19:29;;;;;;;;;;;16.80;52.00;;;;;;4198657;28;20126;-41
2021/04/09 04:21:50;;;;;;;;;;;16.80;51.90;;;;;;4198898;28;19920;-42
2021/04/09 04:24:12;;;;;;;0.70;0.70;;;16.80;52.00;;;;;;4198142;28;20402;-40
2021/04/09 04:26:33;;;;;;;0.68;0.68;;;16.70;52.10;;;;;;4203479;28;20052;-41
2021/04/09 04:28:54;;;;;;;0.43;0.43;;;16.60;52.50;;;;;;4213931;28;20048;-41
2021/04/09 04:31:15;;;;;;;0.28;0.15;;;16.40;52.80;;;;;;4214842;28;20097;-41
2021/04/09 04:33:39;;;;;;;0.80;0.75;;;16.40;53.00;;;;;;4214304;28;20052;-41
2021/04/09 04:36:00;;;;;;;0.00;0.00;;;16.50;53.60;;;;;;4214804;28;20109;-41
2021/04/09 04:38:21;;;;;;;0.28;0.28;;;16.60;52.80;;;;;;4214503;28;20113;-41
2021/04/09 04:40:43;;;;;;;0.03;0.03;;;16.60;52.70;;;;;;4214674;28;20056;-41
2021/04/09 04:43:04;;;;;;;0.10;0.10;;;16.50;52.90;;;;;;4214725;28;20130;-41
2021/04/09 04:45:25;;;;;;;0.28;0.28;;;16.50;52.90;;;;;;4214646;28;20132;-41
2021/04/09 04:47:46;;;;;;;0.00;0.00;;;16.50;52.90;;;;;;4214240;28;20051;-41
2021/04/09 04:50:09;;;;;;;4.65;1.88;;;16.50;53.00;;;;;;4214602;28;20460;-41
2021/04/09 04:52:32;;;;;;;1.25;0.90;;;16.40;53.20;;;;;;4214173;28;20802;-41
2021/04/09 04:54:53;;;;;;;0.00;0.00;;;16.30;53.40;;;;;;4197799;28;20052;-41
2021/04/09 04:57:14;;;;;;;0.38;0.38;;;16.30;53.50;;;;;;4206062;28;20059;-40
2021/04/09 04:59:35;;;;;;;1.27;0.93;;;16.30;54.40;;;;;;4214275;28;20513;-41
2021/04/09 05:01:56;;;;;;;0.00;0.00;;;16.20;53.80;;;;;;4214166;28;20135;-41
2021/04/09 05:04:17;;;;;;;0.90;0.30;;;16.20;54.20;;;;;;4214303;28;20063;-41
2021/04/09 05:06:38;;;;;;;0.75;0.52;;;16.30;54.10;;;;;;4214333;28;20052;-41
2021/04/09 05:09:00;;;;;;;0.20;0.20;;;16.50;53.90;;;;;;4214096;28;20155;-45
2021/04/09 05:11:22;;;;;;;;;;;16.60;53.60;;;;;;4214582;28;20143;-44
2021/04/09 05:13:44;;;;;;;0.17;0.17;;;16.70;53.40;;;;;;4213971;28;20404;-41
2021/04/09 05:16:05;;;;;;;0.00;0.00;;;16.80;53.00;;;;;;4213894;28;20052;-41
2021/04/09 05:18:26;;;;;;;0.22;0.22;;;16.80;53.00;;;;;;4213690;28;20083;-41
2021/04/09 05:20:48;;;;;;;0.15;0.15;;;16.70;53.00;;;;;;4214028;28;20052;-41
2021/04/09 05:23:13;;;;;;;0.03;0.03;;;16.70;53.40;;;;;;4214137;28;20585;-42
2021/04/09 05:25:35;;;;;;;0.10;0.10;;;16.50;53.60;;;;;;4213826;28;20067;-40
2021/04/09 05:27:57;;;;;;;0.15;0.15;;;16.60;53.80;;;;;;4213637;28;20056;-46
2021/04/09 05:30:19;;;;;;;0.05;0.05;;;16.70;53.30;;;;;;4213778;28;20131;-42
2021/04/09 05:32:40;;;;;;;0.63;0.63;;;16.80;53.00;;;;;;4213464;28;20054;-40
2021/04/09 05:35:02;;;;;;;;;;;16.80;52.90;;;;;;4214294;28;20056;-42
2021/04/09 05:37:22;;;;;;;0.37;0.37;;;16.80;53.00;;;;;;4213875;28;19920;-40
2021/04/09 05:39:43;;;;;;;0.75;0.75;;;16.80;53.00;;;;;;4213061;28;20309;-41
2021/04/09 05:42:08;;;;;;;0.38;0.38;;;16.90;53.80;;;;;;4213341;28;20126;-40
2021/04/09 05:44:30;;;;;;;0.73;0.73;;;16.90;53.10;;;;;;4213627;28;20049;-41
2021/04/09 05:46:52;;;;;;;0.10;0.10;;;16.80;53.00;;;;;;4212881;28;20101;-41
2021/04/09 05:49:13;;;;;;;3.15;1.67;;;16.80;52.70;;;;;;4214486;28;20138;-40
2021/04/09 05:51:35;;;;;;;0.20;0.20;;;16.80;52.30;;;;;;4209799;28;20056;-41
2021/04/09 05:53:59;;;;;;;0.20;0.20;;;16.70;52.20;;;;;;4207825;28;20579;-46
2021/04/09 05:56:20;;;;;;;1.77;0.68;;;16.70;52.10;;;;;;4213376;28;20044;-40
2021/04/09 05:58:42;;;;;;;0.40;0.40;;;16.60;52.10;;;;;;4212812;28;20708;-41
2021/04/09 06:01:04;;;;;;;1.17;1.00;;;16.40;52.10;;;;;;4213149;28;20514;-40
2021/04/09 06:03:24;;;;;;;0.00;0.00;;;16.30;52.10;;;;;;4212293;28;20052;-40
2021/04/09 06:05:45;;;;;;;0.00;0.00;;;16.30;52.30;;;;;;4211884;28;20149;-41
2021/04/09 06:08:09;;;;;;;0.65;0.65;;;16.40;51.90;;;;;;4213405;28;20510;-41
2021/04/09 06:10:31;;;;;;;0.15;0.15;;;16.40;51.70;;;;;;4212989;28;20063;-43
2021/04/09 06:12:52;;;;;;;1.38;0.40;;;16.40;51.80;;;;;;4212173;28;20776;-47
2021/04/09 06:15:14;;;;;;;0.00;0.00;;;16.40;51.60;;;;;;4213097;28;20480;-40
2021/04/09 06:17:35;;;;;;;2.05;1.75;;;16.50;51.00;;;;;;4213268;28;20060;-42
2021/04/09 06:19:56;;;;;;;5.82;1.20;;;16.60;50.80;;;;;;4213240;28;20052;-41
2021/04/09 06:22:18;;;;;;;0.30;0.30;;;16.60;50.60;;;;;;4213283;28;20052;-40
2021/04/09 06:24:40;;;;;;;0.38;0.38;;;16.50;50.60;;;;;;4209875;28;20060;-40
2021/04/09 06:27:02;;;;;;;1.90;1.60;;;16.40;50.70;;;;;;4209149;28;20106;-41
2021/04/09 06:29:24;;;;;;;0.00;0.00;;;16.30;51.00;;;;;;4213018;28;20054;-41
2021/04/09 06:31:46;;;;;;;0.50;0.50;;;16.10;51.20;;;;;;4213619;28;20048;-41
2021/04/09 06:34:08;;;;;;;0.52;0.52;;;16.00;51.60;;;;;;4211854;28;20047;-41
2021/04/09 06:36:29;;;;;;;;;;;15.90;52.00;;;;;;4213186;28;20054;-41
2021/04/09 06:38:50;;;;;;;0.20;0.20;;;15.80;52.20;;;;;;4212651;28;20010;-42
2021/04/09 06:41:13;;;;;;;0.00;0.00;;;15.60;52.70;;;;;;4212022;28;20329;-41
2021/04/09 06:43:34;;;;;;;0.10;0.10;;;15.50;53.20;;;;;;4212193;28;20751;-41
2021/04/09 06:45:55;;;;;;;1.30;1.27;;;15.40;53.90;;;;;;4212593;28;20052;-40
2021/04/09 06:48:17;;;;;;;6.70;2.85;;;15.30;54.40;;;;;;4212584;28;20056;-41
2021/04/09 06:50:38;;;;;;;0.35;0.35;;;15.30;55.60;;;;;;4212346;28;20052;-48
2021/04/09 06:52:59;;;;;;;0.43;0.43;;;15.20;55.00;;;;;;4211191;28;20044;-42
2021/04/09 06:55:23;;;;;;;0.03;0.03;;;15.20;55.50;;;;;;4210198;28;20051;-40
2021/04/09 06:57:45;;;;;;;0.70;0.70;;;15.10;55.60;;;;;;4209413;28;20145;-41
2021/04/09 07:00:08;;;;;;;0.55;0.55;;;15.00;55.80;;;;;;4211111;28;20399;-40
2021/04/09 07:02:29;;;;;;;0.43;0.43;;;14.90;55.80;;;;;;4212033;28;20051;-41
2021/04/09 07:04:51;;;;;;;0.38;0.38;;;14.90;55.90;;;;;;4212424;28;20055;-40
2021/04/09 07:07:14;;;;;;;0.22;0.22;;;14.80;56.00;;;;;;4212572;28;20051;-41
2021/04/09 07:09:35;;;;;;;0.40;0.40;;;14.70;56.20;;;;;;4211158;28;20429;-41
2021/04/09 07:11:56;;;;;;;0.70;0.70;;;14.70;56.20;;;;;;4212132;28;20067;-42
2021/04/09 07:14:18;;;;;;;0.15;0.15;;;14.60;56.40;;;;;;4212424;28;20058;-41
2021/04/09 07:16:55;;;;;;;;;;;14.60;56.50;;;;;;4212036;28;20052;-41
2021/04/09 07:19:31;;;;;;;0.82;0.82;;;14.60;56.50;;;;;;4211791;28;20654;-41
2021/04/09 07:22:01;;;;;;;0.57;0.57;;;14.50;56.60;;;;;;4211906;28;20058;-42
2021/04/09 07:24:22;;;;;;;0.10;0.10;;;14.50;56.70;;;;;;4211941;28;20607;-42
2021/04/09 07:26:45;;;;;;;0.15;0.15;;;14.50;57.00;;;;;;4212104;28;20550;-41
2021/04/09 07:29:06;;;;;;;0.10;0.10;;;14.50;57.00;;;;;;4205789;28;20125;-41
2021/04/09 07:31:28;;;;;;;0.10;0.10;;;14.40;57.00;;;;;;4211979;28;20075;-41
2021/04/09 07:33:53;;;;;;;0.10;0.10;;;14.40;57.10;;;;;;4195601;28;20465;-41
2021/04/09 07:36:14;;;;;;;1.00;1.00;;;14.40;57.20;;;;;;4195600;28;20102;-41
2021/04/09 07:38:36;;;;;;;0.00;0.00;;;14.30;57.30;;;;;;4195473;28;20499;-44
2021/04/09 07:40:59;;;;;;;0.10;0.10;;;14.40;57.40;;;;;;4200886;28;20638;-41
2021/04/09 07:43:21;;;;;;;0.95;0.95;;;14.30;57.50;;;;;;4212191;28;20056;-44
2021/04/09 07:45:42;;;;;;;0.10;0.10;;;14.30;57.60;;;;;;4211607;28;20052;-43
2021/04/09 07:48:04;;;;;;;;;;;14.30;57.80;;;;;;4207380;28;20055;-46
2021/04/09 07:50:39;;;;;;;0.00;0.00;;;14.30;57.90;;;;;;4211168;28;20027;-41
2021/04/09 07:53:00;;;;;;;1.10;1.10;;;14.20;58.00;;;;;;4211993;28;20604;-40
2021/04/09 07:55:29;;;;;;;0.20;0.20;;;14.20;58.20;;;;;;4211139;28;20052;-43
2021/04/09 07:57:51;;;;;;;0.03;0.03;;;14.20;58.20;;;;;;4211712;28;20101;-43
2021/04/09 08:00:22;;;;;;;0.10;0.10;;;14.20;58.40;;;;;;4211870;28;20513;-42
2021/04/09 08:02:43;;;;;;;0.03;0.03;;;14.20;58.50;;;;;;4212056;28;20044;-41
2021/04/09 08:05:04;;;;;;;;;;;14.20;58.60;;;;;;4212559;28;20082;-41
2021/04/09 08:07:32;;;;;;;0.00;0.00;;;14.10;58.70;;;;;;4211574;28;19923;-41
2021/04/09 08:09:54;;;;;;;0.00;0.00;;;14.10;58.80;;;;;;4211961;28;20051;-41
2021/04/09 08:12:30;;;;;;;1.13;1.13;;;14.10;58.90;;;;;;4211796;28;20048;-41
2021/04/09 08:14:50;;;;;;;0.85;0.85;;;14.10;58.90;;;;;;4210169;28;20048;-41
2021/04/09 08:17:12;;;;;;;0.88;0.88;;;14.10;59.10;;;;;;4200519;28;20052;-45
2021/04/09 08:19:33;;;;;;;0.00;0.00;;;14.10;59.20;;;;;;4211777;28;20422;-40
2021/04/09 08:21:56;;;;;;;0.30;0.30;;;14.10;59.30;;;;;;4211700;28;20490;-40
2021/04/09 08:24:18;;;;;;;0.25;0.25;;;14.10;59.30;;;;;;4211647;28;20054;-41
2021/04/09 08:26:40;;;;;;;0.10;0.10;;;14.10;59.40;;;;;;4211422;28;20056;-41
2021/04/09 08:29:04;;;;;;;2.47;2.08;;;14.10;59.50;;;;;;4213433;28;20051;-45
2021/04/09 08:31:25;;;;;;;0.10;0.10;;;14.10;59.60;;;;;;4223279;27;20055;-47
2021/04/09 08:33:47;;;;;;;0.20;0.20;;;14.10;59.60;;;;;;4211963;28;20056;-41
2021/04/09 08:36:08;;;;;;;0.40;0.40;;;14.10;59.70;;;;;;4214909;28;20055;-42
2021/04/09 08:38:31;;;;;;;0.00;0.00;;;14.10;59.80;;;;;;4213766;28;20048;-44
2021/04/09 08:40:55;;;;;;;1.17;1.17;;;14.10;59.90;;;;;;4201451;28;20127;-40
2021/04/09 08:43:16;;;;;;;0.10;0.10;;;14.10;59.90;;;;;;4214644;28;20410;-42
2021/04/09 08:45:40;;;;;;;0.00;0.00;;;14.10;60.00;;;;;;4214632;28;20050;-39
2021/04/09 08:48:01;;;;;;;0.10;0.10;;;14.00;59.90;;;;;;4214141;28;20044;-40
2021/04/09 08:50:24;;;;;;;0.00;0.00;;;14.00;60.00;;;;;;4214193;28;20060;-40
2021/04/09 08:52:45;;;;;;;;;;;14.00;60.00;;;;;;4215059;28;20702;-40
2021/04/09 08:55:06;;;;;;;;;;;14.00;60.20;;;;;;4212303;28;20297;-41
2021/04/09 08:57:30;;;;;;;0.00;0.00;;;14.00;60.30;;;;;;4197799;28;19931;-40
2021/04/09 08:59:50;;;;;;;0.08;0.08;;;14.00;60.20;;;;;;4203566;28;20794;-41
2021/04/09 09:02:17;;;;;;;0.08;0.08;;;14.00;60.30;;;;;;4213955;28;20058;-41
2021/04/09 09:04:38;;;;;;;0.10;0.10;;;14.00;60.40;;;;;;4214434;28;20048;-41
2021/04/09 09:07:01;;;;;;;0.00;0.00;;;14.00;60.50;;;;;;4214228;28;20113;-41
2021/04/09 09:09:28;;;;;;;0.20;0.20;;;14.00;60.50;;;;;;4215022;28;20079;-41
2021/04/09 09:11:54;;;;;;;0.00;0.00;;;14.00;60.60;;;;;;4208665;28;20494;-41
2021/04/09 09:14:36;;;;;;;0.47;0.47;;;13.90;60.60;;;;;;4213918;28;20469;-40
2021/04/09 09:17:48;;;;;;;0.30;0.30;;;13.90;60.70;;;;;;4213802;28;20128;-40
2021/04/09 09:20:18;;;;;;;0.13;0.13;;;14.00;60.80;;;;;;4214088;28;20051;-41
2021/04/09 09:22:46;;;;;;;0.00;0.00;;;14.00;60.80;;;;;;4214150;28;20044;-42
2021/04/09 09:25:08;;;;;;;1.27;1.27;;;13.90;60.90;;;;;;4213965;28;20044;-41
2021/04/09 09:27:45;;;;;;;3.47;1.08;;;14.00;61.00;;;;;;4213996;28;20408;-40
2021/04/09 09:30:27;;;;;;;0.05;0.05;;;13.90;61.00;;;;;;4213592;28;20044;-40
2021/04/09 09:32:49;;;;;;;0.20;0.20;;;13.90;61.00;;;;;;4214436;28;20097;-41
2021/04/09 09:35:10;;;;;;;0.00;0.00;;;13.90;61.00;;;;;;4203811;28;20048;-40
2021/04/09 09:37:36;;;;;;;0.80;0.80;;;13.90;61.10;;;;;;4212199;28;20048;-40
2021/04/09 09:40:02;;;;;;;0.00;0.00;;;13.90;61.20;;;;;;4203648;28;20513;-41
2021/04/09 09:42:45;;;;;;;0.43;0.43;;;13.90;61.30;;;;;;4213004;28;20490;-41
2021/04/09 09:45:08;;;;;;;0.03;0.03;;;13.90;61.40;;;;;;4212418;28;20048;-41
2021/04/09 09:47:31;;;;;;;0.73;0.73;;;13.90;61.60;;;;;;4213040;28;20136;-40
2021/04/09 09:50:15;;;;;;;0.00;0.00;;;13.90;61.70;;;;;;4197002;28;20052;-40
2021/04/09 09:52:44;;;;;;;0.00;0.00;;;13.90;61.80;;;;;;4213618;28;20509;-41
2021/04/09 09:55:12;;;;;;;0.28;0.28;;;13.90;61.90;;;;;;4213667;28;20051;-41
2021/04/09 09:57:45;;;;;;;1.10;0.80;;;13.90;61.90;;;;;;4213523;28;20059;-42
2021/04/09 10:00:07;;;;;;;0.00;0.00;;;13.90;61.90;;;;;;4213445;28;20056;-41
2021/04/09 10:02:28;;;;;;;0.10;0.10;;;13.90;61.90;;;;;;4212808;28;20079;-41
2021/04/09 10:04:52;;;;;;;0.00;0.00;;;13.90;62.00;;;;;;4213206;28;20044;-41
2021/04/09 10:07:13;;;;;;;0.03;0.03;;;13.80;62.00;;;;;;4212968;28;20422;-41
2021/04/09 10:09:36;;;;;;;1.20;0.70;;;13.90;62.10;;;;;;4213233;28;20052;-41
2021/04/09 10:11:59;;;;;;;0.00;0.00;;;13.90;62.10;;;;;;4213356;28;20051;-41
2021/04/09 10:14:20;;;;;;;0.05;0.05;;;13.90;62.20;;;;;;4213292;28;20134;-41
2021/04/09 10:16:41;;;;;;;0.20;0.20;;;13.90;62.30;;;;;;4212920;28;20075;-41
2021/04/09 10:19:07;;;;;;;0.00;0.00;;;13.90;62.20;;;;;;4213259;28;20051;-40
2021/04/09 10:21:30;;;;;;;0.22;0.22;;;13.90;62.20;;;;;;4206428;28;20090;-41
2021/04/09 10:24:03;;;;;;;0.68;0.68;;;13.80;62.10;;;;;;4213224;28;20059;-40
2021/04/09 10:26:25;;;;;;;0.00;0.00;;;13.90;62.20;;;;;;4212093;28;20136;-41
2021/04/09 10:28:46;;;;;;;0.00;0.00;;;13.90;62.30;;;;;;4212309;28;20059;-41
2021/04/09 10:31:12;;;;;;;0.00;0.00;;;13.90;62.20;;;;;;4211967;28;20182;-41
2021/04/09 10:33:37;;;;;;;0.00;0.00;;;13.90;62.20;;;;;;4213013;28;20052;-42
2021/04/09 10:36:14;;;;;;;0.00;0.00;;;13.90;62.40;;;;;;4212927;28;20083;-46
2021/04/09 10:38:35;;;;;;;0.00;0.00;;;13.90;62.40;;;;;;4212497;28;20542;-44
2021/04/09 10:40:58;;;;;;;0.00;0.00;;;13.90;62.40;;;;;;4212891;28;20431;-44
2021/04/09 10:43:37;;;;;;;0.00;0.00;;;13.90;62.30;;;;;;4212489;28;20044;-41
2021/04/09 10:46:06;;;;;;;0.10;0.10;;;13.90;62.20;;;;;;4212397;28;20116;-43
2021/04/09 10:48:29;;;;;;;0.10;0.10;;;13.90;62.20;;;;;;4212683;28;20059;-41
2021/04/09 10:50:50;;;;;;;0.08;0.08;;;13.90;62.30;;;;;;4212385;28;20470;-46
2021/04/09 10:53:12;;;;;;;0.00;0.00;;;13.90;62.30;;;;;;4212725;28;20406;-43
2021/04/09 10:55:34;;;;;;;0.05;0.05;;;13.90;62.30;;;;;;4212482;28;20159;-41
2021/04/09 10:57:55;;;;;;;0.00;0.00;;;13.90;62.30;;;;;;4212599;28;20131;-42
2021/04/09 11:00:21;;;;;;;0.00;0.00;;;13.90;62.40;;;;;;4210929;28;20056;-40
2021/04/09 11:02:43;;;;;;;0.00;0.00;;;13.90;62.50;;;;;;4212286;28;20502;-40
2021/04/09 11:05:06;;;;;;;0.10;0.10;;;13.90;62.70;;;;;;4213096;28;20048;-41
2021/04/09 11:07:40;;;;;;;0.00;0.00;;;13.90;62.80;;;;;;4212229;28;20418;-40
2021/04/09 11:10:30;;;;;;;0.00;0.00;;;13.90;63.30;;;;;;4215520;28;20466;-40
2021/04/09 11:12:51;;;;;;;0.73;0.73;;;13.90;63.40;;;;;;4211902;28;20052;-40
2021/04/09 11:15:15;;;;;;;0.15;0.15;;;13.90;63.80;;;;;;4212257;28;20044;-42
2021/04/09 11:17:39;;;;;;;0.00;0.00;;;13.90;64.00;;;;;;4212362;28;20105;-40
2021/04/09 11:20:03;;;;;;;0.00;0.00;;;13.90;64.30;;;;;;4212510;28;20052;-40
2021/04/09 11:22:29;;;;;;;0.10;0.10;;;13.90;64.30;;;;;;4195696;28;20060;-40
2021/04/09 11:24:58;;;;;;;0.00;0.00;;;13.90;64.60;;;;;;4195872;28;20133;-40
2021/04/09 11:27:22;;;;;;;0.00;0.00;;;13.90;64.70;;;;;;4210895;28;20415;-40
2021/04/09 11:29:43;;;;;;;0.00;0.00;;;13.90;64.80;;;;;;4212271;28;20093;-41
2021/04/09 11:32:08;;;;;;;0.00;0.00;;;13.90;64.80;;;;;;4210978;28;20134;-40
2021/04/09 11:34:35;;;;;;;0.00;0.00;;;13.90;64.80;;;;;;4211369;28;20478;-41
2021/04/09 11:36:58;;;;;;;0.00;0.00;;;13.90;64.90;;;;;;4212450;28;20055;-40
2021/04/09 11:39:20;;;;;;;0.00;0.00;;;13.90;65.00;;;;;;4212392;28;20051;-40
2021/04/09 11:41:44;;;;;;;0.05;0.05;;;13.90;64.90;;;;;;4212135;28;20425;-40
2021/04/09 11:44:28;;;;;;;0.00;0.00;;;14.00;65.10;;;;;;4212033;28;20052;-41
2021/04/09 11:46:49;;;;;;;1.00;1.00;;;14.00;65.00;;;;;;4212146;28;20045;-40
2021/04/09 11:49:10;;;;;;;0.47;0.40;;;14.00;65.10;;;;;;4212155;28;20125;-41
2021/04/09 11:51:34;;;;;;;1.35;1.30;;;14.00;65.10;;;;;;4212171;28;20080;-41
2021/04/09 11:54:02;;;;;;;0.00;0.00;;;14.00;65.00;;;;;;4212198;28;20052;-42
2021/04/09 11:56:38;;;;;;;0.15;0.15;;;14.10;64.90;;;;;;4212339;28;20395;-44
2021/04/09 11:59:09;;;;;;;0.20;0.20;;;14.10;64.80;;;;;;4212376;28;20056;-40
2021/04/09 12:01:30;;;;;;;;;;;14.10;64.80;;;;;;4195915;28;20067;-40
2021/04/09 12:03:52;;;;;;;0.00;0.00;;;14.20;64.80;;;;;;4197360;28;19924;-40
2021/04/09 12:06:15;;;;;;;0.25;0.25;;;14.20;64.70;;;;;;4198654;28;20080;-40
2021/04/09 12:08:37;;;;;;;0.00;0.00;;;14.20;64.70;;;;;;4198590;28;20064;-41
2021/04/09 12:10:58;;;;;;;0.00;0.00;;;14.20;64.80;;;;;;4198641;28;20053;-39
2021/04/09 12:13:19;;;;;;;0.00;0.00;;;14.20;64.80;;;;;;4198565;28;20056;-40
2021/04/09 12:15:40;;;;;;;0.00;0.00;;;14.20;64.90;;;;;;4198563;28;20080;-42
2021/04/09 12:18:03;;;;;;;0.10;0.10;;;14.20;65.00;;;;;;4198484;28;20143;-40
2021/04/09 12:20:26;;;;;;;0.43;0.43;;;14.20;64.90;;;;;;4210370;28;20056;-40
2021/04/09 12:22:48;;;;;;;0.00;0.00;;;14.20;64.80;;;;;;4215132;28;20060;-40
2021/04/09 12:25:12;;;;;;;0.00;0.00;;;14.20;64.90;;;;;;4215182;28;20051;-40
2021/04/09 12:27:33;;;;;;;0.32;0.32;;;14.20;65.00;;;;;;4213788;28;20536;-40
2021/04/09 12:29:55;;;;;;;0.00;0.00;;;14.20;64.90;;;;;;4214968;28;20047;-40
2021/04/09 12:32:16;;;;;;;0.00;0.00;;;14.20;65.00;;;;;;4215044;28;20052;-40